createdAt,value
2018-08-18T00:00:40.483Z,965.29
2018-08-18T00:01:40.424Z,965.29
2018-08-18T00:02:40.365Z,965.31
2018-08-18T00:03:40.306Z,965.33
2018-08-18T00:04:40.253Z,965.35
2018-08-18T00:05:40.190Z,965.35
2018-08-18T00:06:40.133Z,965.38
2018-08-18T00:07:40.074Z,965.36
2018-08-18T00:08:40.016Z,965.39
2018-08-18T00:09:39.958Z,965.44
2018-08-18T00:10:39.900Z,965.46
2018-08-18T00:11:39.843Z,965.42
2018-08-18T00:12:39.783Z,965.45
2018-08-18T00:13:39.724Z,965.41
2018-08-18T00:14:39.666Z,965.48
2018-08-18T00:15:39.610Z,965.47
2018-08-18T00:16:39.552Z,965.48
2018-08-18T00:17:39.490Z,965.49
2018-08-18T00:18:39.431Z,965.48
2018-08-18T00:19:39.377Z,965.52
2018-08-18T00:20:39.318Z,965.54
2018-08-18T00:21:39.263Z,965.55
2018-08-18T00:22:39.201Z,965.53
2018-08-18T00:23:39.144Z,965.56
2018-08-18T00:24:39.088Z,965.59
2018-08-18T00:25:39.024Z,965.60
2018-08-18T00:26:38.971Z,965.57
2018-08-18T00:27:38.910Z,965.56
2018-08-18T00:28:38.852Z,965.58
2018-08-18T00:29:38.794Z,965.55
2018-08-18T00:30:38.735Z,965.52
2018-08-18T00:31:38.676Z,965.53
2018-08-18T00:32:38.622Z,965.49
2018-08-18T00:33:38.560Z,965.46
2018-08-18T00:34:38.502Z,965.44
2018-08-18T00:35:38.445Z,965.43
2018-08-18T00:36:38.388Z,965.46
2018-08-18T00:37:38.327Z,965.40
2018-08-18T00:38:38.277Z,965.41
2018-08-18T00:39:38.207Z,965.43
2018-08-18T00:40:38.151Z,965.39
2018-08-18T00:41:38.092Z,965.36
2018-08-18T00:42:38.037Z,965.35
2018-08-18T00:43:37.977Z,965.39
2018-08-18T00:44:37.918Z,965.34
2018-08-18T00:45:37.862Z,965.35
2018-08-18T00:46:37.802Z,965.35
2018-08-18T00:47:37.743Z,965.35
2018-08-18T00:48:37.684Z,965.36
2018-08-18T00:49:37.626Z,965.35
2018-08-18T00:50:37.572Z,965.36
2018-08-18T00:51:37.513Z,965.37
2018-08-18T00:52:37.451Z,965.39
2018-08-18T00:53:37.392Z,965.39
2018-08-18T00:54:37.333Z,965.39
2018-08-18T00:55:37.276Z,965.40
2018-08-18T00:56:37.220Z,965.38
2018-08-18T00:57:37.160Z,965.38
2018-08-18T00:58:37.101Z,965.37
2018-08-18T00:59:37.043Z,965.37
2018-08-18T01:00:36.985Z,965.38
2018-08-18T01:01:36.927Z,965.45
2018-08-18T01:02:36.870Z,965.38
2018-08-18T01:03:36.809Z,965.38
2018-08-18T01:04:36.751Z,965.41
2018-08-18T01:05:36.692Z,965.38
2018-08-18T01:06:36.634Z,965.39
2018-08-18T01:07:36.578Z,965.41
2018-08-18T01:08:36.518Z,965.40
2018-08-18T01:09:36.461Z,965.45
2018-08-18T01:10:36.401Z,965.45
2018-08-18T01:11:36.435Z,965.45
2018-08-18T01:12:36.427Z,965.43
2018-08-18T01:13:36.229Z,965.44
2018-08-18T01:14:36.229Z,965.48
2018-08-18T01:15:36.168Z,965.48
2018-08-18T01:16:36.052Z,965.53
2018-08-18T01:17:35.991Z,965.51
2018-08-18T01:18:35.934Z,965.57
2018-08-18T01:19:35.877Z,965.54
2018-08-18T01:20:35.820Z,965.56
2018-08-18T01:21:35.759Z,965.55
2018-08-18T01:22:35.700Z,965.58
2018-08-18T01:23:35.644Z,965.62
2018-08-18T01:24:35.585Z,965.68
2018-08-18T01:25:35.524Z,965.68
2018-08-18T01:26:35.468Z,965.71
2018-08-18T01:27:35.411Z,965.70
2018-08-18T01:28:35.349Z,965.70
2018-08-18T01:29:35.297Z,965.67
2018-08-18T01:30:35.235Z,965.67
2018-08-18T01:31:35.176Z,965.63
2018-08-18T01:32:35.118Z,965.57
2018-08-18T01:33:35.059Z,965.59
2018-08-18T01:34:35.005Z,965.60
2018-08-18T01:35:34.945Z,965.59
2018-08-18T01:36:34.883Z,965.58
2018-08-18T01:37:34.825Z,965.59
2018-08-18T01:38:34.769Z,965.57
2018-08-18T01:39:34.710Z,965.62
2018-08-18T01:40:34.651Z,965.63
2018-08-18T01:41:34.594Z,965.60
2018-08-18T01:42:34.535Z,965.62
2018-08-18T01:43:34.476Z,965.59
2018-08-18T01:44:34.421Z,965.62
2018-08-18T01:45:34.360Z,965.59
2018-08-18T01:46:34.300Z,965.61
2018-08-18T01:47:34.255Z,965.60
2018-08-18T01:48:34.185Z,965.65
2018-08-18T01:49:34.124Z,965.67
2018-08-18T01:50:34.068Z,965.64
2018-08-18T01:51:34.010Z,965.66
2018-08-18T01:52:33.952Z,965.67
2018-08-18T01:53:33.891Z,965.68
2018-08-18T01:54:33.834Z,965.65
2018-08-18T01:55:33.774Z,965.69
2018-08-18T01:56:33.717Z,965.72
2018-08-18T01:57:33.657Z,965.69
2018-08-18T01:58:33.599Z,965.66
2018-08-18T01:59:33.540Z,965.71
2018-08-18T02:00:33.529Z,965.70
2018-08-18T02:01:33.426Z,965.73
2018-08-18T02:02:33.370Z,965.71
2018-08-18T02:03:33.307Z,965.70
2018-08-18T02:04:33.246Z,965.72
2018-08-18T02:05:33.189Z,965.70
2018-08-18T02:06:33.132Z,965.68
2018-08-18T02:07:33.073Z,965.71
2018-08-18T02:08:33.015Z,965.73
2018-08-18T02:09:32.957Z,965.72
2018-08-18T02:10:32.898Z,965.70
2018-08-18T02:11:32.840Z,965.79
2018-08-18T02:12:32.782Z,965.75
2018-08-18T02:13:32.723Z,965.74
2018-08-18T02:14:32.666Z,965.77
2018-08-18T02:15:32.609Z,965.75
2018-08-18T02:16:32.549Z,965.73
2018-08-18T02:17:32.490Z,965.73
2018-08-18T02:18:32.431Z,965.74
2018-08-18T02:19:32.371Z,965.73
2018-08-18T02:20:32.317Z,965.76
2018-08-18T02:21:32.255Z,965.75
2018-08-18T02:22:32.194Z,965.76
2018-08-18T02:23:32.140Z,965.82
2018-08-18T02:24:32.083Z,965.82
2018-08-18T02:25:32.020Z,965.87
2018-08-18T02:26:31.962Z,965.92
2018-08-18T02:27:31.903Z,965.94
2018-08-18T02:28:31.845Z,965.92
2018-08-18T02:29:31.791Z,965.93
2018-08-18T02:30:31.732Z,965.89
2018-08-18T02:31:31.671Z,965.84
2018-08-18T02:32:31.612Z,965.88
2018-08-18T02:33:31.555Z,965.86
2018-08-18T02:34:31.493Z,965.89
2018-08-18T02:35:31.437Z,965.88
2018-08-18T02:36:31.378Z,965.89
2018-08-18T02:37:31.318Z,965.86
2018-08-18T02:38:31.263Z,965.89
2018-08-18T02:39:31.203Z,965.88
2018-08-18T02:40:31.145Z,965.85
2018-08-18T02:41:31.085Z,965.90
2018-08-18T02:42:31.028Z,965.89
2018-08-18T02:43:30.969Z,965.89
2018-08-18T02:44:30.913Z,965.90
2018-08-18T02:45:30.851Z,965.88
2018-08-18T02:46:30.792Z,965.89
2018-08-18T02:47:30.735Z,965.89
2018-08-18T02:48:30.675Z,965.85
2018-08-18T02:49:30.616Z,965.86
2018-08-18T02:50:30.558Z,965.87
2018-08-18T02:51:30.501Z,965.87
2018-08-18T02:52:30.442Z,965.90
2018-08-18T02:53:30.383Z,965.89
2018-08-18T02:54:30.326Z,965.87
2018-08-18T02:55:30.267Z,965.91
2018-08-18T02:56:30.207Z,965.89
2018-08-18T02:57:30.148Z,965.87
2018-08-18T02:58:30.089Z,965.87
2018-08-18T02:59:30.032Z,965.92
2018-08-18T03:00:29.976Z,965.90
2018-08-18T03:01:29.916Z,965.93
2018-08-18T03:02:29.854Z,965.89
2018-08-18T03:03:29.797Z,965.90
2018-08-18T03:04:29.739Z,965.95
2018-08-18T03:05:29.681Z,965.88
2018-08-18T03:06:29.622Z,965.95
2018-08-18T03:07:29.563Z,965.94
2018-08-18T03:08:29.507Z,965.97
2018-08-18T03:09:29.446Z,965.92
2018-08-18T03:10:29.388Z,965.94
2018-08-18T03:11:29.329Z,965.95
2018-08-18T03:12:29.269Z,965.98
2018-08-18T03:13:29.210Z,965.99
2018-08-18T03:14:29.157Z,966.02
2018-08-18T03:15:29.095Z,966.03
2018-08-18T03:16:29.034Z,966.08
2018-08-18T03:17:28.976Z,966.08
2018-08-18T03:18:28.922Z,966.11
2018-08-18T03:19:28.861Z,966.13
2018-08-18T03:20:28.800Z,966.14
2018-08-18T03:21:28.742Z,966.12
2018-08-18T03:22:28.684Z,966.13
2018-08-18T03:23:28.625Z,966.17
2018-08-18T03:24:28.566Z,966.12
2018-08-18T03:25:28.510Z,966.14
2018-08-18T03:26:28.450Z,966.21
2018-08-18T03:27:28.391Z,966.24
2018-08-18T03:28:28.333Z,966.24
2018-08-18T03:29:28.273Z,966.23
2018-08-18T03:30:28.214Z,966.26
2018-08-18T03:31:28.157Z,966.20
2018-08-18T03:32:28.099Z,966.21
2018-08-18T03:33:28.037Z,966.28
2018-08-18T03:34:27.983Z,966.22
2018-08-18T03:35:27.922Z,966.22
2018-08-18T03:36:27.864Z,966.25
2018-08-18T03:37:27.804Z,966.28
2018-08-18T03:38:27.752Z,966.18
2018-08-18T03:39:27.689Z,966.24
2018-08-18T03:40:27.630Z,966.23
2018-08-18T03:41:27.566Z,966.25
2018-08-18T03:42:27.511Z,966.24
2018-08-18T03:43:27.452Z,966.24
2018-08-18T03:44:27.397Z,966.19
2018-08-18T03:45:27.336Z,966.22
2018-08-18T03:46:27.277Z,966.18
2018-08-18T03:47:27.222Z,966.20
2018-08-18T03:48:27.161Z,966.21
2018-08-18T03:49:27.103Z,966.23
2018-08-18T03:50:27.041Z,966.21
2018-08-18T03:51:26.982Z,966.18
2018-08-18T03:52:26.957Z,966.22
2018-08-18T03:53:26.865Z,966.18
2018-08-18T03:54:26.807Z,966.21
2018-08-18T03:55:26.749Z,966.19
2018-08-18T03:56:26.691Z,966.25
2018-08-18T03:57:26.631Z,966.20
2018-08-18T03:58:26.573Z,966.21
2018-08-18T03:59:26.515Z,966.25
2018-08-18T04:00:26.468Z,966.25
2018-08-18T04:01:26.406Z,966.29
2018-08-18T04:02:26.338Z,966.28
2018-08-18T04:03:26.281Z,966.29
2018-08-18T04:04:26.221Z,966.28
2018-08-18T04:05:26.161Z,966.32
2018-08-18T04:06:26.103Z,966.32
2018-08-18T04:07:26.045Z,966.33
2018-08-18T04:08:25.986Z,966.31
2018-08-18T04:09:26.082Z,966.34
2018-08-18T04:10:25.866Z,966.35
2018-08-18T04:11:25.805Z,966.36
2018-08-18T04:12:25.751Z,966.35
2018-08-18T04:13:25.691Z,966.35
2018-08-18T04:14:25.634Z,966.37
2018-08-18T04:15:25.579Z,966.38
2018-08-18T04:16:25.515Z,966.39
2018-08-18T04:17:25.457Z,966.38
2018-08-18T04:18:25.394Z,966.39
2018-08-18T04:19:25.336Z,966.35
2018-08-18T04:20:25.279Z,966.37
2018-08-18T04:21:25.220Z,966.34
2018-08-18T04:22:25.161Z,966.33
2018-08-18T04:23:25.101Z,966.31
2018-08-18T04:24:25.041Z,966.35
2018-08-18T04:25:25.105Z,966.32
2018-08-18T04:26:24.926Z,966.34
2018-08-18T04:27:24.866Z,966.36
2018-08-18T04:28:24.806Z,966.39
2018-08-18T04:29:24.747Z,966.41
2018-08-18T04:30:24.689Z,966.37
2018-08-18T04:31:24.631Z,966.41
2018-08-18T04:32:24.575Z,966.39
2018-08-18T04:33:24.513Z,966.37
2018-08-18T04:34:24.453Z,966.39
2018-08-18T04:35:24.419Z,966.38
2018-08-18T04:36:24.337Z,966.40
2018-08-18T04:37:24.279Z,966.35
2018-08-18T04:38:24.220Z,966.37
2018-08-18T04:39:24.162Z,966.38
2018-08-18T04:40:24.109Z,966.41
2018-08-18T04:41:24.045Z,966.42
2018-08-18T04:42:23.985Z,966.37
2018-08-18T04:43:23.925Z,966.44
2018-08-18T04:44:23.868Z,966.44
2018-08-18T04:45:23.808Z,966.49
2018-08-18T04:46:23.750Z,966.45
2018-08-18T04:47:23.690Z,966.51
2018-08-18T04:48:23.634Z,966.50
2018-08-18T04:49:23.578Z,966.48
2018-08-18T04:50:23.544Z,966.51
2018-08-18T04:51:23.455Z,966.54
2018-08-18T04:52:23.398Z,966.56
2018-08-18T04:53:23.338Z,966.58
2018-08-18T04:54:23.281Z,966.55
2018-08-18T04:55:23.221Z,966.55
2018-08-18T04:56:23.161Z,966.53
2018-08-18T04:57:23.103Z,966.54
2018-08-18T04:58:23.045Z,966.51
2018-08-18T04:59:23.021Z,966.53
2018-08-18T05:00:22.926Z,966.51
2018-08-18T05:01:22.867Z,966.51
2018-08-18T05:02:22.809Z,966.52
2018-08-18T05:03:22.810Z,966.54
2018-08-18T05:04:22.693Z,966.53
2018-08-18T05:05:22.634Z,966.52
2018-08-18T05:06:22.575Z,966.54
2018-08-18T05:07:22.516Z,966.54
2018-08-18T05:08:22.459Z,966.54
2018-08-18T05:09:22.400Z,966.52
2018-08-18T05:10:22.339Z,966.52
2018-08-18T05:11:22.280Z,966.51
2018-08-18T05:12:22.222Z,966.53
2018-08-18T05:13:22.164Z,966.55
2018-08-18T05:14:22.109Z,966.48
2018-08-18T05:15:22.047Z,966.55
2018-08-18T05:16:21.988Z,966.53
2018-08-18T05:17:21.927Z,966.56
2018-08-18T05:18:21.871Z,966.57
2018-08-18T05:19:21.927Z,966.54
2018-08-18T05:20:21.752Z,966.58
2018-08-18T05:21:21.694Z,966.63
2018-08-18T05:22:21.635Z,966.60
2018-08-18T05:23:21.574Z,966.60
2018-08-18T05:24:21.517Z,966.63
2018-08-18T05:25:21.458Z,966.62
2018-08-18T05:26:21.399Z,966.62
2018-08-18T05:27:21.341Z,966.64
2018-08-18T05:28:21.282Z,966.66
2018-08-18T05:29:21.227Z,966.66
2018-08-18T05:30:21.164Z,966.70
2018-08-18T05:31:21.107Z,966.66
2018-08-18T05:32:21.047Z,966.66
2018-08-18T05:33:20.987Z,966.66
2018-08-18T05:34:20.931Z,966.77
2018-08-18T05:35:20.869Z,966.71
2018-08-18T05:36:20.811Z,966.76
2018-08-18T05:37:20.760Z,966.74
2018-08-18T05:38:20.693Z,966.73
2018-08-18T05:39:20.635Z,966.75
2018-08-18T05:40:20.576Z,966.74
2018-08-18T05:41:20.514Z,966.70
2018-08-18T05:42:20.457Z,966.73
2018-08-18T05:43:20.399Z,966.74
2018-08-18T05:44:20.340Z,966.75
2018-08-18T05:45:20.280Z,966.75
2018-08-18T05:46:20.221Z,966.78
2018-08-18T05:47:20.162Z,966.77
2018-08-18T05:48:20.102Z,966.77
2018-08-18T05:49:20.044Z,966.79
2018-08-18T05:50:19.984Z,966.80
2018-08-18T05:51:19.926Z,966.84
2018-08-18T05:52:19.867Z,966.81
2018-08-18T05:53:19.808Z,966.84
2018-08-18T05:54:19.749Z,966.85
2018-08-18T05:55:19.690Z,966.88
2018-08-18T05:56:19.632Z,966.85
2018-08-18T05:57:19.578Z,966.85
2018-08-18T05:58:19.512Z,966.87
2018-08-18T05:59:19.456Z,966.87
2018-08-18T06:00:19.397Z,966.86
2018-08-18T06:01:19.337Z,966.85
2018-08-18T06:02:19.279Z,966.85
2018-08-18T06:03:19.223Z,966.83
2018-08-18T06:04:19.162Z,966.82
2018-08-18T06:05:19.101Z,966.85
2018-08-18T06:06:19.042Z,966.80
2018-08-18T06:07:18.983Z,966.82
2018-08-18T06:08:18.923Z,966.84
2018-08-18T06:09:18.864Z,966.83
2018-08-18T06:10:18.805Z,966.83
2018-08-18T06:11:18.751Z,966.76
2018-08-18T06:12:18.689Z,966.81
2018-08-18T06:13:18.628Z,966.80
2018-08-18T06:14:18.570Z,966.77
2018-08-18T06:15:18.512Z,966.83
2018-08-18T06:16:18.451Z,966.79
2018-08-18T06:17:18.392Z,966.80
2018-08-18T06:18:18.333Z,966.78
2018-08-18T06:19:18.279Z,966.78
2018-08-18T06:20:18.217Z,966.80
2018-08-18T06:21:18.155Z,966.79
2018-08-18T06:22:18.096Z,966.78
2018-08-18T06:23:18.037Z,966.79
2018-08-18T06:24:17.980Z,966.78
2018-08-18T06:25:17.919Z,966.78
2018-08-18T06:26:17.862Z,966.75
2018-08-18T06:27:17.804Z,966.81
2018-08-18T06:28:17.742Z,966.81
2018-08-18T06:29:17.683Z,966.84
2018-08-18T06:30:17.625Z,966.89
2018-08-18T06:31:17.565Z,966.87
2018-08-18T06:32:17.508Z,966.87
2018-08-18T06:33:17.447Z,966.86
2018-08-18T06:34:17.389Z,966.88
2018-08-18T06:35:17.329Z,966.88
2018-08-18T06:36:17.271Z,966.93
2018-08-18T06:37:17.210Z,966.90
2018-08-18T06:38:17.152Z,966.89
2018-08-18T06:39:17.091Z,966.86
2018-08-18T06:40:17.039Z,966.87
2018-08-18T06:41:17.013Z,966.90
2018-08-18T06:42:16.916Z,966.93
2018-08-18T06:43:16.856Z,966.92
2018-08-18T06:44:16.800Z,966.92
2018-08-18T06:45:16.736Z,966.92
2018-08-18T06:46:16.684Z,966.92
2018-08-18T06:47:16.617Z,966.91
2018-08-18T06:48:16.561Z,966.98
2018-08-18T06:49:16.501Z,966.97
2018-08-18T06:50:16.440Z,966.98
2018-08-18T06:51:16.383Z,966.94
2018-08-18T06:52:16.324Z,966.98
2018-08-18T06:53:16.263Z,967.02
2018-08-18T06:54:16.262Z,966.99
2018-08-18T06:55:16.335Z,967.00
2018-08-18T06:56:16.087Z,966.97
2018-08-18T06:57:16.028Z,966.95
2018-08-18T06:58:15.971Z,966.97
2018-08-18T06:59:15.908Z,966.97
2018-08-18T07:00:15.851Z,966.96
2018-08-18T07:01:15.793Z,967.00
2018-08-18T07:02:15.732Z,966.95
2018-08-18T07:03:15.671Z,966.99
2018-08-18T07:04:15.614Z,967.02
2018-08-18T07:05:15.558Z,966.97
2018-08-18T07:06:15.494Z,967.00
2018-08-18T07:07:15.434Z,967.02
2018-08-18T07:08:15.376Z,967.02
2018-08-18T07:09:15.316Z,967.02
2018-08-18T07:10:15.257Z,967.05
2018-08-18T07:11:15.200Z,967.06
2018-08-18T07:12:15.138Z,967.05
2018-08-18T07:13:15.079Z,967.08
2018-08-18T07:14:15.019Z,967.11
2018-08-18T07:15:14.962Z,967.09
2018-08-18T07:16:14.907Z,967.12
2018-08-18T07:17:14.848Z,967.12
2018-08-18T07:18:14.783Z,967.14
2018-08-18T07:19:14.732Z,967.16
2018-08-18T07:20:14.665Z,967.12
2018-08-18T07:21:14.606Z,967.15
2018-08-18T07:22:14.547Z,967.14
2018-08-18T07:23:14.489Z,967.16
2018-08-18T07:24:14.427Z,967.17
2018-08-18T07:25:14.370Z,967.19
2018-08-18T07:26:14.309Z,967.17
2018-08-18T07:27:14.250Z,967.20
2018-08-18T07:28:14.240Z,967.23
2018-08-18T07:29:14.135Z,967.23
2018-08-18T07:30:14.075Z,967.26
2018-08-18T07:31:14.013Z,967.26
2018-08-18T07:32:13.955Z,967.26
2018-08-18T07:33:13.896Z,967.26
2018-08-18T07:34:13.836Z,967.28
2018-08-18T07:35:13.776Z,967.30
2018-08-18T07:36:13.718Z,967.30
2018-08-18T07:37:13.751Z,967.32
2018-08-18T07:38:13.599Z,967.32
2018-08-18T07:39:13.540Z,967.34
2018-08-18T07:40:13.482Z,967.34
2018-08-18T07:41:13.426Z,967.37
2018-08-18T07:42:13.364Z,967.33
2018-08-18T07:43:13.305Z,967.35
2018-08-18T07:44:13.245Z,967.36
2018-08-18T07:45:13.187Z,967.35
2018-08-18T07:46:13.139Z,967.38
2018-08-18T07:47:13.068Z,967.36
2018-08-18T07:48:13.032Z,967.39
2018-08-18T07:49:12.951Z,967.38
2018-08-18T07:50:12.893Z,967.37
2018-08-18T07:51:12.832Z,967.34
2018-08-18T07:52:12.776Z,967.37
2018-08-18T07:53:12.820Z,967.36
2018-08-18T07:54:12.658Z,967.38
2018-08-18T07:55:12.597Z,967.40
2018-08-18T07:56:12.536Z,967.38
2018-08-18T07:57:12.477Z,967.39
2018-08-18T07:58:12.419Z,967.38
2018-08-18T07:59:12.360Z,967.37
2018-08-18T08:00:12.322Z,967.38
2018-08-18T08:01:12.242Z,967.39
2018-08-18T08:02:12.184Z,967.39
2018-08-18T08:03:12.125Z,967.42
2018-08-18T08:04:12.066Z,967.45
2018-08-18T08:05:12.125Z,967.48
2018-08-18T08:06:11.947Z,967.49
2018-08-18T08:07:11.889Z,967.49
2018-08-18T08:08:11.830Z,967.53
2018-08-18T08:09:11.778Z,967.52
2018-08-18T08:10:11.713Z,967.58
2018-08-18T08:11:11.655Z,967.50
2018-08-18T08:12:11.594Z,967.54
2018-08-18T08:13:11.535Z,967.50
2018-08-18T08:14:11.477Z,967.58
2018-08-18T08:15:11.420Z,967.54
2018-08-18T08:16:11.360Z,967.55
2018-08-18T08:17:11.300Z,967.56
2018-08-18T08:18:11.302Z,967.57
2018-08-18T08:19:11.186Z,967.59
2018-08-18T08:20:11.126Z,967.57
2018-08-18T08:21:11.068Z,967.60
2018-08-18T08:22:11.007Z,967.58
2018-08-18T08:23:10.949Z,967.62
2018-08-18T08:24:10.889Z,967.62
2018-08-18T08:25:10.830Z,967.63
2018-08-18T08:26:10.772Z,967.62
2018-08-18T08:27:10.712Z,967.62
2018-08-18T08:28:10.655Z,967.63
2018-08-18T08:29:10.595Z,967.63
2018-08-18T08:30:10.538Z,967.67
2018-08-18T08:31:10.481Z,967.64
2018-08-18T08:32:10.421Z,967.65
2018-08-18T08:33:10.360Z,967.70
2018-08-18T08:34:10.302Z,967.66
2018-08-18T08:35:10.244Z,967.66
2018-08-18T08:36:10.184Z,967.64
2018-08-18T08:37:10.126Z,967.66
2018-08-18T08:38:10.068Z,967.64
2018-08-18T08:39:10.009Z,967.68
2018-08-18T08:40:09.948Z,967.68
2018-08-18T08:41:09.891Z,967.67
2018-08-18T08:42:09.833Z,967.69
2018-08-18T08:43:09.799Z,967.72
2018-08-18T08:44:09.715Z,967.73
2018-08-18T08:45:09.657Z,967.69
2018-08-18T08:46:09.600Z,967.71
2018-08-18T08:47:09.540Z,967.68
2018-08-18T08:48:09.480Z,967.70
2018-08-18T08:49:09.489Z,967.68
2018-08-18T08:50:09.362Z,967.72
2018-08-18T08:51:09.305Z,967.72
2018-08-18T08:52:09.258Z,967.73
2018-08-18T08:53:09.189Z,967.73
2018-08-18T08:54:09.130Z,967.77
2018-08-18T08:55:09.072Z,967.74
2018-08-18T08:56:09.013Z,967.75
2018-08-18T08:57:08.961Z,967.79
2018-08-18T08:58:08.896Z,967.79
2018-08-18T08:59:08.837Z,967.76
2018-08-18T09:00:08.779Z,967.76
2018-08-18T09:01:08.719Z,967.78
2018-08-18T09:02:08.661Z,967.76
2018-08-18T09:03:08.603Z,967.75
2018-08-18T09:04:08.547Z,967.76
2018-08-18T09:05:08.485Z,967.77
2018-08-18T09:06:08.426Z,967.78
2018-08-18T09:07:08.371Z,967.80
2018-08-18T09:08:08.311Z,967.78
2018-08-18T09:09:08.251Z,967.75
2018-08-18T09:10:08.234Z,967.77
2018-08-18T09:11:08.138Z,967.77
2018-08-18T09:12:08.078Z,967.75
2018-08-18T09:13:08.023Z,967.74
2018-08-18T09:14:07.959Z,967.77
2018-08-18T09:15:07.900Z,967.79
2018-08-18T09:16:07.845Z,967.78
2018-08-18T09:17:07.788Z,967.80
2018-08-18T09:18:07.729Z,967.82
2018-08-18T09:19:07.669Z,967.79
2018-08-18T09:20:07.611Z,967.84
2018-08-18T09:21:07.553Z,967.81
2018-08-18T09:22:07.494Z,967.78
2018-08-18T09:23:07.437Z,967.82
2018-08-18T09:24:07.379Z,967.79
2018-08-18T09:25:07.320Z,967.82
2018-08-18T09:26:07.278Z,967.81
2018-08-18T09:27:07.201Z,967.80
2018-08-18T09:28:07.146Z,967.82
2018-08-18T09:29:07.087Z,967.81
2018-08-18T09:30:07.027Z,967.83
2018-08-18T09:31:06.970Z,967.87
2018-08-18T09:32:06.912Z,967.84
2018-08-18T09:33:06.856Z,967.85
2018-08-18T09:34:06.796Z,967.85
2018-08-18T09:35:06.739Z,967.85
2018-08-18T09:36:06.686Z,967.86
2018-08-18T09:37:06.628Z,967.91
2018-08-18T09:38:06.563Z,967.87
2018-08-18T09:39:06.506Z,967.87
2018-08-18T09:40:06.448Z,967.88
2018-08-18T09:41:06.388Z,967.88
2018-08-18T09:42:06.331Z,967.89
2018-08-18T09:43:06.274Z,967.87
2018-08-18T09:44:06.213Z,967.91
2018-08-18T09:45:06.155Z,967.89
2018-08-18T09:46:06.100Z,967.89
2018-08-18T09:47:06.042Z,967.88
2018-08-18T09:48:05.984Z,967.88
2018-08-18T09:49:05.926Z,967.85
2018-08-18T09:50:05.883Z,967.86
2018-08-18T09:51:05.809Z,967.84
2018-08-18T09:52:05.753Z,967.85
2018-08-18T09:53:05.694Z,967.86
2018-08-18T09:54:05.635Z,967.89
2018-08-18T09:55:05.580Z,967.87
2018-08-18T09:56:05.524Z,967.87
2018-08-18T09:57:05.462Z,967.87
2018-08-18T09:58:05.404Z,967.84
2018-08-18T09:59:05.350Z,967.88
2018-08-18T10:00:05.288Z,967.88
2018-08-18T10:01:05.231Z,967.87
2018-08-18T10:02:05.173Z,967.84
2018-08-18T10:03:05.116Z,967.84
2018-08-18T10:04:05.058Z,967.82
2018-08-18T10:05:04.996Z,967.86
2018-08-18T10:06:04.948Z,967.88
2018-08-18T10:07:04.894Z,967.85
2018-08-18T10:08:04.828Z,967.85
2018-08-18T10:09:04.770Z,967.87
2018-08-18T10:10:04.710Z,967.86
2018-08-18T10:11:04.656Z,967.87
2018-08-18T10:12:04.595Z,967.86
2018-08-18T10:13:04.540Z,967.91
2018-08-18T10:14:04.481Z,967.86
2018-08-18T10:15:04.423Z,967.86
2018-08-18T10:16:04.365Z,967.86
2018-08-18T10:17:04.306Z,967.85
2018-08-18T10:18:04.250Z,967.86
2018-08-18T10:19:04.192Z,967.83
2018-08-18T10:20:04.135Z,967.80
2018-08-18T10:21:04.080Z,967.78
2018-08-18T10:22:04.019Z,967.80
2018-08-18T10:23:03.961Z,967.80
2018-08-18T10:24:03.906Z,967.79
2018-08-18T10:25:03.846Z,967.75
2018-08-18T10:26:03.789Z,967.76
2018-08-18T10:27:03.731Z,967.78
2018-08-18T10:28:03.674Z,967.80
2018-08-18T10:29:03.618Z,967.78
2018-08-18T10:30:03.561Z,967.73
2018-08-18T10:31:03.501Z,967.74
2018-08-18T10:32:03.443Z,967.74
2018-08-18T10:33:03.386Z,967.72
2018-08-18T10:34:03.330Z,967.72
2018-08-18T10:35:03.270Z,967.71
2018-08-18T10:36:03.215Z,967.67
2018-08-18T10:37:03.155Z,967.68
2018-08-18T10:38:03.098Z,967.68
2018-08-18T10:39:03.041Z,967.67
2018-08-18T10:40:02.985Z,967.65
2018-08-18T10:41:02.927Z,967.66
2018-08-18T10:42:02.916Z,967.70
2018-08-18T10:43:02.816Z,967.68
2018-08-18T10:44:02.758Z,967.70
2018-08-18T10:45:02.699Z,967.69
2018-08-18T10:46:02.641Z,967.71
2018-08-18T10:47:02.587Z,967.70
2018-08-18T10:48:02.530Z,967.68
2018-08-18T10:49:02.471Z,967.68
2018-08-18T10:50:02.413Z,967.68
2018-08-18T10:51:02.369Z,967.72
2018-08-18T10:52:02.301Z,967.71
2018-08-18T10:53:02.243Z,967.70
2018-08-18T10:54:02.188Z,967.69
2018-08-18T10:55:02.130Z,967.70
2018-08-18T10:56:02.074Z,967.68
2018-08-18T10:57:02.016Z,967.64
2018-08-18T10:58:01.959Z,967.66
2018-08-18T10:59:01.903Z,967.68
2018-08-18T11:00:01.850Z,967.65
2018-08-18T11:01:01.792Z,967.65
2018-08-18T11:02:01.736Z,967.67
2018-08-18T11:03:01.679Z,967.67
2018-08-18T11:04:01.635Z,967.63
2018-08-18T11:05:01.568Z,967.63
2018-08-18T11:06:01.512Z,967.66
2018-08-18T11:07:01.456Z,967.65
2018-08-18T11:08:01.403Z,967.63
2018-08-18T11:09:01.343Z,967.66
2018-08-18T11:10:01.289Z,967.63
2018-08-18T11:11:01.238Z,967.64
2018-08-18T11:12:01.209Z,967.62
2018-08-18T11:13:01.121Z,967.60
2018-08-18T11:14:01.063Z,967.64
2018-08-18T11:15:01.008Z,967.62
2018-08-18T11:16:00.951Z,967.65
2018-08-18T11:17:00.896Z,967.61
2018-08-18T11:18:00.840Z,967.64
2018-08-18T11:19:00.785Z,967.59
2018-08-18T11:20:00.730Z,967.60
2018-08-18T11:21:00.674Z,967.59
2018-08-18T11:22:00.620Z,967.56
2018-08-18T11:23:00.562Z,967.55
2018-08-18T11:24:00.506Z,967.56
2018-08-18T11:25:00.450Z,967.54
2018-08-18T11:26:00.396Z,967.54
2018-08-18T11:27:00.340Z,967.53
2018-08-18T11:28:00.288Z,967.55
2018-08-18T11:29:00.229Z,967.58
2018-08-18T11:30:00.173Z,967.57
2018-08-18T11:31:00.117Z,967.58
2018-08-18T11:32:00.064Z,967.55
2018-08-18T11:33:00.005Z,967.50
2018-08-18T11:33:59.960Z,967.50
2018-08-18T11:34:59.910Z,967.55
2018-08-18T11:35:59.838Z,967.51
2018-08-18T11:36:59.781Z,967.52
2018-08-18T11:37:59.725Z,967.47
2018-08-18T11:38:59.670Z,967.49
2018-08-18T11:39:59.615Z,967.46
2018-08-18T11:40:59.558Z,967.44
2018-08-18T11:41:59.502Z,967.43
2018-08-18T11:42:59.447Z,967.42
2018-08-18T11:43:59.391Z,967.42
2018-08-18T11:44:59.338Z,967.41
2018-08-18T11:45:59.279Z,967.37
2018-08-18T11:46:59.234Z,967.38
2018-08-18T11:47:59.169Z,967.39
2018-08-18T11:48:59.110Z,967.38
2018-08-18T11:49:59.056Z,967.37
2018-08-18T11:50:58.999Z,967.36
2018-08-18T11:51:58.946Z,967.40
2018-08-18T11:52:58.886Z,967.40
2018-08-18T11:53:58.834Z,967.42
2018-08-18T11:54:58.778Z,967.39
2018-08-18T11:55:58.718Z,967.39
2018-08-18T11:56:58.661Z,967.42
2018-08-18T11:57:58.605Z,967.41
2018-08-18T11:58:58.550Z,967.43
2018-08-18T11:59:58.495Z,967.42
2018-08-18T12:00:58.500Z,967.38
2018-08-18T12:01:58.434Z,967.37
2018-08-18T12:02:58.326Z,967.38
2018-08-18T12:03:58.272Z,967.32
2018-08-18T12:04:58.213Z,967.40
2018-08-18T12:05:58.163Z,967.37
2018-08-18T12:06:58.100Z,967.35
2018-08-18T12:07:58.045Z,967.36
2018-08-18T12:08:57.989Z,967.37
2018-08-18T12:09:57.935Z,967.34
2018-08-18T12:10:57.952Z,967.34
2018-08-18T12:11:57.826Z,967.37
2018-08-18T12:12:57.765Z,967.33
2018-08-18T12:13:57.709Z,967.34
2018-08-18T12:14:57.652Z,967.34
2018-08-18T12:15:57.597Z,967.34
2018-08-18T12:16:57.539Z,967.34
2018-08-18T12:17:57.484Z,967.38
2018-08-18T12:18:57.427Z,967.27
2018-08-18T12:19:57.371Z,967.33
2018-08-18T12:20:57.320Z,967.28
2018-08-18T12:21:57.262Z,967.30
2018-08-18T12:22:57.206Z,967.33
2018-08-18T12:23:57.151Z,967.31
2018-08-18T12:24:57.100Z,967.29
2018-08-18T12:25:57.038Z,967.24
2018-08-18T12:26:56.982Z,967.26
2018-08-18T12:27:56.927Z,967.27